Time;durP1;ratioP1;P1;durP2;ratioP2;P2;SDS_P1;SDS_P2;PMS_P1;PMS_P2;Temp;Humidity;BMP_temperature;BMP_pressure;BME280_temperature;BME280_humidity;BME280_pressure;Samples;Min_cycle;Max_cycle;Signal;HPM_P1;HPM_P2
2022/07/17 00:01:17;;;;;;;3.72;1.83;;;16.80;99.90;;;;;;4967318;28;20760;-79
2022/07/17 00:03:44;;;;;;;4.35;1.90;;;16.80;99.90;;;;;;4957945;28;20201;-80
2022/07/17 00:06:14;;;;;;;3.83;1.90;;;16.90;99.90;;;;;;4975248;28;20198;-80
2022/07/17 00:08:42;;;;;;;4.05;1.77;;;17.00;99.90;;;;;;4977741;28;20197;-79
2022/07/17 00:11:09;;;;;;;2.53;1.70;;;17.00;99.90;;;;;;4975001;28;20205;-80
2022/07/17 00:13:37;;;;;;;3.20;1.60;;;17.00;99.90;;;;;;4958886;28;20224;-80
2022/07/17 00:16:05;;;;;;;4.10;1.88;;;17.10;99.90;;;;;;4964728;28;20285;-80
2022/07/17 00:18:32;;;;;;;2.72;1.70;;;17.10;99.90;;;;;;4967089;28;20201;-80
2022/07/17 00:21:00;;;;;;;3.85;1.70;;;17.10;99.90;;;;;;4967870;28;20200;-80
2022/07/17 00:23:29;;;;;;;4.55;1.45;;;17.00;99.90;;;;;;4958360;28;20201;-79
2022/07/17 00:25:56;;;;;;;2.55;1.60;;;17.00;99.90;;;;;;4968044;28;20204;-80
2022/07/17 00:28:23;;;;;;;2.38;1.77;;;17.10;99.90;;;;;;4958691;28;20205;-80
2022/07/17 00:30:51;;;;;;;6.13;2.05;;;17.10;99.80;;;;;;4977568;28;20204;-80
2022/07/17 00:33:18;;;;;;;4.53;1.73;;;17.10;99.70;;;;;;4985113;28;20218;-80
2022/07/17 00:35:46;;;;;;;2.55;1.58;;;17.10;99.70;;;;;;4976831;28;20201;-79
2022/07/17 00:38:14;;;;;;;3.75;1.42;;;17.00;99.70;;;;;;4966996;28;20718;-80
2022/07/17 00:40:43;;;;;;;3.08;1.80;;;17.00;99.90;;;;;;4962603;28;20201;-80
2022/07/17 00:43:11;;;;;;;6.07;1.90;;;17.00;99.90;;;;;;4976101;28;20184;-79
2022/07/17 00:45:38;;;;;;;2.25;1.35;;;17.00;99.90;;;;;;4958121;28;20212;-79
2022/07/17 00:48:10;;;;;;;3.28;2.03;;;16.90;99.90;;;;;;4975516;28;20220;-80
2022/07/17 00:50:40;;;;;;;2.13;1.60;;;16.90;99.90;;;;;;4977312;28;20211;-79
2022/07/17 00:53:10;;;;;;;3.63;1.45;;;16.80;99.90;;;;;;4967748;28;20224;-80
2022/07/17 00:55:40;;;;;;;2.83;1.73;;;16.80;99.90;;;;;;4958248;28;20216;-80
2022/07/17 00:58:10;;;;;;;3.17;1.88;;;16.80;99.90;;;;;;4965830;28;20232;-80
2022/07/17 01:00:38;;;;;;;3.13;1.60;;;16.90;99.90;;;;;;4955959;28;20205;-80
2022/07/17 01:03:06;;;;;;;2.30;1.40;;;16.90;99.90;;;;;;4967827;28;20208;-80
2022/07/17 01:05:33;;;;;;;2.97;1.77;;;16.90;99.90;;;;;;4971169;28;20204;-80
2022/07/17 01:08:01;;;;;;;3.00;2.00;;;17.00;99.90;;;;;;4983383;28;20244;-80
2022/07/17 01:10:29;;;;;;;3.10;1.70;;;17.00;99.90;;;;;;4959263;28;20205;-80
2022/07/17 01:12:56;;;;;;;2.00;1.77;;;17.00;99.90;;;;;;4959546;28;20221;-79
2022/07/17 01:15:25;;;;;;;2.60;1.65;;;16.90;99.90;;;;;;4958046;28;20205;-80
2022/07/17 01:17:53;;;;;;;2.90;1.67;;;17.00;99.90;;;;;;4967503;28;20227;-80
2022/07/17 01:20:21;;;;;;;4.22;1.92;;;16.80;99.90;;;;;;4976748;28;20197;-80
2022/07/17 01:22:52;;;;;;;4.88;2.13;;;16.80;99.90;;;;;;4976959;28;20197;-80
2022/07/17 01:25:22;;;;;;;4.18;1.75;;;16.80;99.90;;;;;;4958919;28;20205;-80
2022/07/17 01:27:49;;;;;;;2.83;1.60;;;16.70;99.90;;;;;;4958611;28;20731;-80
2022/07/17 01:30:17;;;;;;;4.90;1.80;;;16.70;99.90;;;;;;4974907;28;20213;-80
2022/07/17 01:32:44;;;;;;;3.83;1.88;;;16.60;99.90;;;;;;4974369;28;20204;-79
2022/07/17 01:35:14;;;;;;;3.05;2.00;;;16.60;99.90;;;;;;4957287;28;20198;-80
2022/07/17 01:37:43;;;;;;;3.03;1.98;;;16.60;99.90;;;;;;4966134;28;20232;-79
2022/07/17 01:40:14;;;;;;;2.97;1.70;;;16.50;99.90;;;;;;4986111;28;20213;-80
2022/07/17 01:42:45;;;;;;;2.97;1.90;;;16.40;99.90;;;;;;4973589;28;20196;-79
2022/07/17 01:45:13;;;;;;;3.17;1.77;;;16.40;99.90;;;;;;4973736;28;20550;-77
2022/07/17 01:47:41;;;;;;;2.85;1.83;;;16.40;99.90;;;;;;4959404;28;20313;-78
2022/07/17 01:50:09;;;;;;;2.63;1.45;;;16.30;99.90;;;;;;4969780;28;20202;-78
2022/07/17 01:52:38;;;;;;;4.82;1.90;;;16.40;99.90;;;;;;4974118;28;20188;-77
2022/07/17 01:55:08;;;;;;;2.88;1.90;;;16.30;99.90;;;;;;4987192;28;20220;-77
2022/07/17 01:57:37;;;;;;;5.47;2.13;;;16.30;99.90;;;;;;4956826;28;20224;-78
2022/07/17 02:00:08;;;;;;;1.83;1.52;;;16.20;99.90;;;;;;4955401;28;20205;-78
2022/07/17 02:02:36;;;;;;;2.72;1.50;;;16.10;99.90;;;;;;4976196;28;20217;-78
2022/07/17 02:05:04;;;;;;;4.40;1.85;;;16.00;99.90;;;;;;4955780;28;20197;-77
2022/07/17 02:07:32;;;;;;;2.83;1.52;;;16.00;99.90;;;;;;4946591;28;20224;-78
2022/07/17 02:10:00;;;;;;;4.15;1.77;;;16.00;99.90;;;;;;4960193;28;20220;-78
2022/07/17 02:12:27;;;;;;;2.20;1.63;;;15.90;99.90;;;;;;4980520;28;20234;-78
2022/07/17 02:14:56;;;;;;;3.45;1.60;;;15.90;99.90;;;;;;4972772;28;20229;-78
2022/07/17 02:17:24;;;;;;;4.13;1.80;;;15.80;99.90;;;;;;4948890;28;20224;-78
2022/07/17 02:19:51;;;;;;;2.22;1.65;;;15.90;99.90;;;;;;4957471;28;20204;-78
2022/07/17 02:22:18;;;;;;;4.43;2.20;;;15.90;99.90;;;;;;4960580;28;20215;-78
2022/07/17 02:24:46;;;;;;;2.55;1.70;;;15.90;99.90;;;;;;4972988;28;20197;-77
2022/07/17 02:27:13;;;;;;;2.17;1.70;;;15.90;99.90;;;;;;4973677;28;20224;-78
2022/07/17 02:29:41;;;;;;;3.10;2.00;;;15.90;99.90;;;;;;4953801;28;20212;-78
2022/07/17 02:32:10;;;;;;;3.15;1.70;;;15.90;99.90;;;;;;4970961;28;20660;-77
2022/07/17 02:34:37;;;;;;;4.18;2.03;;;16.00;99.90;;;;;;4957342;28;20231;-78
2022/07/17 02:37:04;;;;;;;4.25;2.10;;;16.00;99.90;;;;;;4973969;28;20221;-77
2022/07/17 02:39:32;;;;;;;3.90;1.90;;;15.80;99.90;;;;;;4968896;28;20197;-78
2022/07/17 02:41:59;;;;;;;5.57;2.13;;;15.80;99.90;;;;;;4976392;28;20209;-78
2022/07/17 02:44:27;;;;;;;5.10;2.30;;;15.90;99.90;;;;;;4937097;29;20198;-78
2022/07/17 02:46:54;;;;;;;3.55;1.90;;;16.00;99.90;;;;;;4958438;28;20224;-78
2022/07/17 02:49:23;;;;;;;5.30;1.80;;;16.00;99.90;;;;;;4973728;28;20209;-77
2022/07/17 02:51:51;;;;;;;3.13;1.58;;;16.00;99.90;;;;;;4972908;28;20269;-77
2022/07/17 02:54:18;;;;;;;5.93;2.20;;;15.90;99.90;;;;;;4971392;28;20221;-77
2022/07/17 02:56:45;;;;;;;2.35;1.67;;;15.90;99.90;;;;;;4957281;28;20589;-77
2022/07/17 02:59:13;;;;;;;7.43;2.60;;;15.80;99.90;;;;;;4973901;28;20201;-77
2022/07/17 03:01:40;;;;;;;6.57;2.08;;;16.00;99.90;;;;;;4955423;28;20213;-77
2022/07/17 03:04:08;;;;;;;5.55;2.05;;;15.80;99.90;;;;;;4954873;28;20208;-78
2022/07/17 03:06:37;;;;;;;2.92;2.00;;;15.80;99.90;;;;;;4955316;28;20229;-78
2022/07/17 03:09:04;;;;;;;5.90;1.98;;;15.70;99.90;;;;;;4973527;28;20675;-78
2022/07/17 03:11:31;;;;;;;5.25;2.03;;;15.60;99.90;;;;;;4953974;28;20231;-78
2022/07/17 03:13:59;;;;;;;4.20;2.33;;;15.50;99.90;;;;;;4958911;28;20232;-78
2022/07/17 03:16:26;;;;;;;4.95;2.03;;;15.50;99.90;;;;;;4965694;28;20224;-78
2022/07/17 03:18:54;;;;;;;6.97;1.85;;;15.60;99.90;;;;;;4971798;28;20185;-78
2022/07/17 03:21:21;;;;;;;2.97;1.95;;;15.70;99.90;;;;;;4955022;28;20216;-78
2022/07/17 03:23:50;;;;;;;4.97;2.00;;;15.40;99.90;;;;;;4975127;28;20560;-78
2022/07/17 03:26:17;;;;;;;4.97;2.30;;;15.40;99.90;;;;;;4962706;28;20593;-78
2022/07/17 03:28:45;;;;;;;5.75;2.55;;;15.30;99.90;;;;;;4964561;28;20216;-78
2022/07/17 03:31:12;;;;;;;3.28;1.92;;;15.40;99.90;;;;;;4954842;28;20212;-78
2022/07/17 03:33:40;;;;;;;5.10;2.33;;;15.50;99.90;;;;;;4972215;28;20197;-78
2022/07/17 03:36:08;;;;;;;3.60;2.28;;;15.40;99.90;;;;;;4973114;28;20217;-78
2022/07/17 03:38:35;;;;;;;4.28;2.15;;;15.60;99.90;;;;;;4982429;28;20205;-78
2022/07/17 03:41:04;;;;;;;3.88;1.70;;;15.70;99.90;;;;;;4946714;28;20218;-78
2022/07/17 03:43:32;;;;;;;4.22;2.03;;;15.70;99.90;;;;;;4967715;28;20209;-77
2022/07/17 03:45:59;;;;;;;3.72;2.15;;;15.80;99.90;;;;;;4963323;28;20208;-78
2022/07/17 03:48:27;;;;;;;5.28;2.20;;;15.90;99.90;;;;;;4954993;28;20705;-78
2022/07/17 03:50:54;;;;;;;3.22;2.38;;;15.70;99.90;;;;;;4967270;28;20205;-78
2022/07/17 03:53:21;;;;;;;4.38;2.10;;;15.40;99.90;;;;;;4958877;28;20680;-78
2022/07/17 03:55:49;;;;;;;4.30;2.20;;;15.30;99.90;;;;;;4968158;28;20213;-78
2022/07/17 03:58:18;;;;;;;5.05;2.10;;;15.20;99.90;;;;;;4955478;28;20233;-78
2022/07/17 04:00:45;;;;;;;5.57;2.15;;;15.20;99.90;;;;;;4981918;28;20560;-83
2022/07/17 04:03:13;;;;;;;3.15;2.00;;;15.10;99.90;;;;;;4967978;28;20217;-83
2022/07/17 04:05:40;;;;;;;2.92;2.10;;;15.30;99.90;;;;;;4962617;28;20223;-83
2022/07/17 04:08:08;;;;;;;4.15;2.13;;;15.70;99.90;;;;;;4983276;28;20233;-83
2022/07/17 04:10:36;;;;;;;3.67;2.20;;;15.60;99.90;;;;;;4980296;28;20580;-82
2022/07/17 04:13:04;;;;;;;4.57;1.70;;;15.50;99.90;;;;;;4980103;28;20210;-82
2022/07/17 04:15:52;;;;;;;2.15;1.40;;;15.50;99.90;;;;;;4972910;28;20228;-83
2022/07/17 04:18:21;;;;;;;3.30;1.95;;;15.50;99.90;;;;;;4988678;28;20232;-82
2022/07/17 04:20:49;;;;;;;4.45;2.15;;;15.50;99.90;;;;;;4985081;28;20208;-83
2022/07/17 04:23:17;;;;;;;7.32;1.85;;;15.80;99.90;;;;;;4978608;28;20197;-82
2022/07/17 04:25:44;;;;;;;2.45;2.20;;;16.00;99.90;;;;;;4974666;28;20212;-83
2022/07/17 04:28:13;;;;;;;4.35;2.28;;;15.90;99.90;;;;;;4958656;28;20264;-82
2022/07/17 04:30:41;;;;;;;4.03;2.00;;;15.60;99.90;;;;;;4985559;28;20220;-82
2022/07/17 04:33:09;;;;;;;3.38;2.17;;;15.60;99.90;;;;;;4985658;28;20194;-81
2022/07/17 04:35:37;;;;;;;3.65;1.92;;;15.70;99.90;;;;;;4988130;28;20699;-82
2022/07/17 04:38:05;;;;;;;3.60;2.15;;;16.00;99.90;;;;;;4963205;28;20722;-82
2022/07/17 04:40:34;;;;;;;3.35;1.98;;;16.30;99.90;;;;;;4962905;28;20205;-82
2022/07/17 04:43:01;;;;;;;2.83;1.60;;;16.40;99.90;;;;;;4954658;28;20213;-84
2022/07/17 04:45:29;;;;;;;3.58;1.90;;;16.70;99.90;;;;;;4970023;28;20205;-85
2022/07/17 04:47:58;;;;;;;2.47;2.15;;;16.90;99.90;;;;;;4985903;28;20223;-84
2022/07/17 04:50:26;;;;;;;2.75;1.77;;;16.80;99.90;;;;;;4955230;28;20205;-84
2022/07/17 04:52:53;;;;;;;3.50;2.20;;;17.00;99.90;;;;;;4959024;28;20206;-84
2022/07/17 04:55:21;;;;;;;4.25;2.00;;;16.90;99.90;;;;;;4961955;28;20236;-84
2022/07/17 04:57:48;;;;;;;2.00;1.70;;;16.60;99.90;;;;;;4977452;28;20229;-84
2022/07/17 05:00:16;;;;;;;3.85;2.13;;;17.10;99.90;;;;;;4975563;28;20213;-84
2022/07/17 05:02:44;;;;;;;3.05;1.75;;;16.70;99.90;;;;;;4978093;28;20197;-84
2022/07/17 05:05:13;;;;;;;4.03;2.42;;;16.50;99.90;;;;;;4975702;28;20185;-84
2022/07/17 05:07:41;;;;;;;4.43;2.25;;;17.00;99.90;;;;;;4958723;29;20224;-84
2022/07/17 05:10:09;;;;;;;4.38;1.70;;;17.40;99.90;;;;;;4960117;28;20282;-84
2022/07/17 05:12:37;;;;;;;6.78;2.40;;;17.90;99.80;;;;;;4961342;28;20208;-84
2022/07/17 05:15:06;;;;;;;2.85;1.98;;;18.10;98.40;;;;;;4959309;28;20232;-84
2022/07/17 05:17:33;;;;;;;3.10;2.00;;;17.90;98.90;;;;;;4966636;28;20224;-84
2022/07/17 05:20:00;;;;;;;3.72;1.77;;;18.20;98.40;;;;;;4973318;28;20209;-84
2022/07/17 05:22:29;;;;;;;4.10;2.03;;;18.40;97.50;;;;;;4980473;28;20208;-84
2022/07/17 05:24:57;;;;;;;3.42;2.30;;;18.50;96.80;;;;;;4965009;28;20226;-84
2022/07/17 05:27:24;;;;;;;3.15;2.10;;;18.10;96.90;;;;;;4973497;28;20240;-84
2022/07/17 05:29:52;;;;;;;3.53;1.92;;;18.10;97.70;;;;;;4953008;28;20205;-84
2022/07/17 05:32:19;;;;;;;3.78;2.20;;;17.90;98.80;;;;;;4975254;28;20648;-84
2022/07/17 05:34:47;;;;;;;3.95;2.20;;;18.10;97.90;;;;;;4959068;28;20590;-84
2022/07/17 05:37:14;;;;;;;3.33;2.40;;;17.80;98.00;;;;;;4960735;28;20236;-85
2022/07/17 05:39:43;;;;;;;4.30;2.42;;;17.60;99.00;;;;;;4969653;28;20209;-85
2022/07/17 05:42:11;;;;;;;3.40;2.42;;;17.60;99.90;;;;;;4962901;28;20212;-85
2022/07/17 05:44:41;;;;;;;5.80;2.35;;;17.70;99.20;;;;;;4959205;28;20216;-85
2022/07/17 05:47:09;;;;;;;4.47;2.70;;;17.40;99.60;;;;;;4970258;28;20212;-84
2022/07/17 05:49:36;;;;;;;4.75;2.55;;;17.20;99.90;;;;;;4964192;28;20232;-84
2022/07/17 05:52:04;;;;;;;3.58;2.47;;;17.20;99.90;;;;;;4955486;28;20205;-84
2022/07/17 05:54:33;;;;;;;3.85;2.42;;;17.10;99.90;;;;;;4977800;28;20204;-84
2022/07/17 05:57:02;;;;;;;6.57;2.55;;;17.60;99.90;;;;;;4959739;28;20711;-84
2022/07/17 05:59:29;;;;;;;6.40;2.47;;;17.50;99.80;;;;;;4974861;28;20211;-84
2022/07/17 06:02:12;;;;;;;4.35;2.20;;;17.50;99.90;;;;;;5133744;27;20675;-83
2022/07/17 06:04:40;;;;;;;7.13;2.70;;;17.80;99.90;;;;;;5117373;28;20669;-83
2022/07/17 06:07:07;;;;;;;3.22;2.10;;;18.30;98.40;;;;;;5132104;27;20207;-83
2022/07/17 06:09:35;;;;;;;4.88;2.47;;;18.40;97.70;;;;;;5119970;27;20199;-84
2022/07/17 06:12:02;;;;;;;5.45;2.20;;;17.90;98.30;;;;;;5131062;27;20191;-83
2022/07/17 06:14:30;;;;;;;6.95;2.30;;;17.90;98.30;;;;;;5146666;27;20203;-83
2022/07/17 06:16:57;;;;;;;5.40;2.33;;;18.20;97.80;;;;;;5113042;28;20243;-83
2022/07/17 06:19:26;;;;;;;4.00;2.33;;;18.30;97.70;;;;;;5118911;28;20199;-81
2022/07/17 06:21:54;;;;;;;4.60;2.00;;;18.40;97.20;;;;;;5123808;27;20230;-79
2022/07/17 06:24:21;;;;;;;4.53;2.30;;;18.50;97.20;;;;;;5125641;28;20195;-79
2022/07/17 06:26:49;;;;;;;6.88;2.30;;;18.30;96.60;;;;;;5120224;28;20235;-79
2022/07/17 06:29:16;;;;;;;4.53;1.90;;;18.40;96.30;;;;;;5117921;28;20203;-80
2022/07/17 06:31:44;;;;;;;3.53;1.30;;;18.60;95.70;;;;;;5130127;27;20188;-80
2022/07/17 06:34:11;;;;;;;4.47;1.85;;;18.70;96.00;;;;;;5134496;28;20204;-79
2022/07/17 06:36:40;;;;;;;3.17;1.42;;;18.80;95.50;;;;;;5121113;27;20568;-79
2022/07/17 06:39:07;;;;;;;4.35;1.55;;;18.60;95.50;;;;;;5130837;27;20187;-79
2022/07/17 06:41:35;;;;;;;3.42;1.65;;;18.80;95.10;;;;;;5127726;27;20811;-79
2022/07/17 06:44:02;;;;;;;3.90;1.70;;;18.80;94.40;;;;;;5129177;28;20576;-79
2022/07/17 06:46:30;;;;;;;4.30;1.77;;;18.70;95.60;;;;;;5123886;27;20216;-79
2022/07/17 06:48:58;;;;;;;8.15;1.70;;;18.70;95.00;;;;;;5121496;28;20200;-79
2022/07/17 06:51:25;;;;;;;4.05;1.65;;;18.70;95.20;;;;;;5132487;28;20585;-79
2022/07/17 06:53:54;;;;;;;5.15;1.92;;;18.90;94.70;;;;;;5130252;28;20198;-79
2022/07/17 06:56:22;;;;;;;5.18;1.40;;;18.80;94.60;;;;;;5129799;27;20223;-79
2022/07/17 06:58:49;;;;;;;6.90;2.20;;;18.90;94.70;;;;;;5126912;27;20199;-79
2022/07/17 07:01:17;;;;;;;5.53;1.50;;;19.20;94.20;;;;;;5122420;28;20215;-79
2022/07/17 07:03:44;;;;;;;3.53;1.50;;;19.30;93.70;;;;;;5126093;27;20200;-79
2022/07/17 07:06:12;;;;;;;3.72;1.80;;;19.50;93.50;;;;;;5131664;28;20562;-79
2022/07/17 07:08:39;;;;;;;3.20;1.40;;;19.40;92.80;;;;;;5130749;27;20188;-79
2022/07/17 07:11:08;;;;;;;6.50;1.70;;;19.40;93.30;;;;;;5132914;27;20203;-79
2022/07/17 07:13:36;;;;;;;3.28;1.73;;;19.40;92.80;;;;;;5112476;28;20204;-79
2022/07/17 07:16:04;;;;;;;2.08;1.33;;;19.50;92.90;;;;;;5118375;28;20193;-79
2022/07/17 07:18:31;;;;;;;7.00;1.80;;;19.30;93.10;;;;;;5112744;28;20209;-79
2022/07/17 07:20:59;;;;;;;2.90;1.70;;;19.30;93.20;;;;;;5107563;28;20580;-79
2022/07/17 07:23:26;;;;;;;4.10;1.90;;;19.30;93.20;;;;;;5103886;28;20223;-79
2022/07/17 07:25:54;;;;;;;5.22;2.13;;;19.50;93.10;;;;;;5106300;28;20556;-79
2022/07/17 07:28:23;;;;;;;5.43;1.83;;;19.40;93.60;;;;;;5116638;28;20701;-79
2022/07/17 07:30:50;;;;;;;4.55;1.70;;;19.60;93.60;;;;;;5110042;28;20200;-79
2022/07/17 07:33:18;;;;;;;2.78;1.40;;;19.50;93.40;;;;;;5113495;28;20203;-79
2022/07/17 07:35:45;;;;;;;3.55;1.50;;;19.60;93.40;;;;;;5118486;28;20208;-79
2022/07/17 07:38:13;;;;;;;4.88;2.13;;;19.50;93.40;;;;;;5106883;28;20220;-79
2022/07/17 07:40:40;;;;;;;3.20;1.48;;;19.70;93.10;;;;;;5121654;27;20196;-79
2022/07/17 07:43:08;;;;;;;5.70;1.85;;;19.70;93.40;;;;;;5109485;28;20197;-79
2022/07/17 07:45:37;;;;;;;3.80;1.63;;;19.70;92.80;;;;;;5119024;27;20216;-79
2022/07/17 07:48:05;;;;;;;5.15;1.80;;;19.80;92.90;;;;;;5102757;27;20225;-79
2022/07/17 07:50:32;;;;;;;3.95;1.85;;;19.80;92.90;;;;;;5103140;28;20588;-79
2022/07/17 07:53:00;;;;;;;7.50;1.95;;;20.20;92.50;;;;;;5101523;28;20201;-79
2022/07/17 07:55:27;;;;;;;3.83;1.42;;;20.30;92.10;;;;;;5098301;28;20201;-79
2022/07/17 07:58:03;;;;;;;2.75;1.17;;;20.40;91.90;;;;;;5100929;28;20220;-79
2022/07/17 08:00:31;;;;;;;5.65;2.03;;;20.50;91.50;;;;;;5111000;28;20681;-79
2022/07/17 08:02:59;;;;;;;3.80;1.48;;;20.70;91.00;;;;;;5117760;28;20201;-79
2022/07/17 08:05:27;;;;;;;3.97;1.58;;;20.80;90.70;;;;;;5119200;28;20658;-79
2022/07/17 08:07:55;;;;;;;3.47;1.40;;;20.90;90.60;;;;;;5118300;28;20221;-79
2022/07/17 08:10:22;;;;;;;2.42;1.45;;;20.80;90.90;;;;;;5117765;28;20196;-79
2022/07/17 08:12:50;;;;;;;2.85;1.55;;;20.80;90.40;;;;;;5118529;28;20677;-79
2022/07/17 08:15:19;;;;;;;5.18;1.90;;;20.90;90.70;;;;;;5117140;28;20215;-79
2022/07/17 08:17:47;;;;;;;5.10;1.67;;;20.70;90.30;;;;;;5118797;28;20571;-79
2022/07/17 08:20:17;;;;;;;3.67;1.42;;;20.80;90.10;;;;;;5112998;28;20208;-79
2022/07/17 08:22:46;;;;;;;6.10;1.40;;;20.80;90.60;;;;;;5112123;28;20231;-79
2022/07/17 08:25:14;;;;;;;3.08;2.10;;;21.00;90.20;;;;;;5115005;28;20211;-79
2022/07/17 08:27:44;;;;;;;3.42;1.70;;;21.20;90.20;;;;;;5111675;28;20221;-79
2022/07/17 08:30:14;;;;;;;3.95;1.88;;;21.00;88.50;;;;;;5107601;28;20196;-79
2022/07/17 08:32:43;;;;;;;5.43;1.80;;;21.00;88.80;;;;;;5116329;28;20189;-79
2022/07/17 08:35:10;;;;;;;4.72;1.80;;;20.90;88.20;;;;;;5113178;28;20201;-79
2022/07/17 08:37:47;;;;;;;3.97;1.20;;;20.80;88.40;;;;;;5114875;28;20689;-79
2022/07/17 08:40:20;;;;;;;2.55;1.45;;;21.10;88.90;;;;;;5112712;28;20205;-79
2022/07/17 08:42:48;;;;;;;4.15;2.20;;;20.80;89.00;;;;;;5113269;28;20208;-79
2022/07/17 08:45:15;;;;;;;4.68;1.52;;;21.00;89.00;;;;;;5117406;28;20207;-79
2022/07/17 08:47:43;;;;;;;2.67;1.60;;;21.10;87.80;;;;;;5112182;28;20205;-79
2022/07/17 08:50:12;;;;;;;2.53;1.33;;;21.10;86.40;;;;;;5117528;28;20188;-79
2022/07/17 08:52:43;;;;;;;4.95;1.63;;;21.10;86.00;;;;;;5105335;28;20189;-79
2022/07/17 08:55:14;;;;;;;3.58;1.45;;;21.10;85.80;;;;;;5103878;28;20212;-79
2022/07/17 08:57:43;;;;;;;3.92;1.33;;;21.00;85.90;;;;;;5103880;28;20563;-79
2022/07/17 09:00:12;;;;;;;4.00;1.48;;;21.00;85.70;;;;;;5112463;27;20219;-79
2022/07/17 09:02:40;;;;;;;5.68;2.40;;;21.10;84.70;;;;;;5103225;28;20204;-79
2022/07/17 09:05:09;;;;;;;3.45;1.40;;;21.30;84.90;;;;;;5098865;28;20210;-78
2022/07/17 09:07:47;;;;;;;3.10;1.55;;;21.40;84.00;;;;;;5100365;28;20228;-79
2022/07/17 09:10:16;;;;;;;2.17;1.25;;;21.60;83.40;;;;;;5097710;28;20224;-79
2022/07/17 09:12:44;;;;;;;5.15;1.92;;;21.40;82.00;;;;;;5095895;28;20196;-79
2022/07/17 09:15:19;;;;;;;2.88;1.40;;;21.10;81.90;;;;;;5096925;28;20197;-79
2022/07/17 09:17:51;;;;;;;3.65;1.33;;;20.70;82.70;;;;;;5107040;28;20228;-78
2022/07/17 09:20:20;;;;;;;4.97;1.35;;;20.50;83.30;;;;;;5104338;28;20685;-79
2022/07/17 09:22:57;;;;;;;3.78;1.45;;;20.80;83.40;;;;;;5103137;28;20209;-79
2022/07/17 09:25:38;;;;;;;3.10;1.38;;;21.20;82.30;;;;;;5110663;28;20653;-79
2022/07/17 09:28:08;;;;;;;2.40;1.23;;;21.30;81.00;;;;;;5101554;28;20216;-79
2022/07/17 09:30:37;;;;;;;4.50;1.65;;;21.50;81.50;;;;;;5121365;28;20202;-79
2022/07/17 09:33:09;;;;;;;2.92;1.38;;;21.70;80.00;;;;;;5119342;28;20184;-79
2022/07/17 09:35:46;;;;;;;3.80;1.80;;;21.60;80.60;;;;;;5120990;28;20203;-79
2022/07/17 09:38:14;;;;;;;4.85;1.52;;;21.80;81.70;;;;;;5111551;28;20224;-79
2022/07/17 09:43:39;;;;;;;4.93;1.58;;;21.80;79.50;;;;;;5115923;28;20204;-79
2022/07/17 09:46:09;;;;;;;4.47;1.63;;;21.90;78.40;;;;;;5118945;28;20209;-79
2022/07/17 09:48:47;;;;;;;3.65;1.70;;;21.90;78.70;;;;;;5129682;28;20204;-79
2022/07/17 09:51:17;;;;;;;3.58;1.77;;;22.00;77.70;;;;;;5122129;28;20554;-79
2022/07/17 09:53:47;;;;;;;2.97;2.38;;;22.00;78.00;;;;;;5110518;28;20184;-79
2022/07/17 09:56:18;;;;;;;4.28;1.90;;;21.70;77.30;;;;;;5119805;28;20193;-79
2022/07/17 09:58:48;;;;;;;2.75;1.50;;;21.80;78.40;;;;;;5119035;28;20195;-79
2022/07/17 10:01:17;;;;;;;4.55;1.35;;;22.00;77.60;;;;;;5119351;28;20203;-79
2022/07/17 10:03:48;;;;;;;3.30;1.67;;;22.10;77.80;;;;;;5117532;28;20216;-79
2022/07/17 10:06:16;;;;;;;2.88;1.23;;;22.20;76.20;;;;;;5126597;28;20206;-79
2022/07/17 10:08:43;;;;;;;2.45;1.58;;;22.20;73.50;;;;;;5126423;28;20180;-79
2022/07/17 10:11:11;;;;;;;2.78;1.35;;;22.20;72.90;;;;;;5128048;28;20210;-79
2022/07/17 10:13:42;;;;;;;3.80;1.67;;;22.10;73.80;;;;;;5118280;28;20213;-79
2022/07/17 10:16:10;;;;;;;5.60;1.73;;;22.20;74.50;;;;;;5125406;28;20203;-79
2022/07/17 10:18:41;;;;;;;3.97;1.70;;;22.40;75.40;;;;;;5123456;28;20207;-79
2022/07/17 10:21:13;;;;;;;2.35;1.50;;;22.30;71.60;;;;;;5133608;28;20180;-79
2022/07/17 10:23:42;;;;;;;2.80;1.33;;;22.10;71.60;;;;;;5125656;28;20218;-79
2022/07/17 10:26:10;;;;;;;5.47;1.98;;;22.30;72.90;;;;;;5128599;28;20200;-79
2022/07/17 10:28:44;;;;;;;3.47;1.65;;;22.30;70.20;;;;;;5121248;28;20201;-79
2022/07/17 10:31:23;;;;;;;3.63;1.80;;;22.30;71.00;;;;;;5121878;28;20206;-79
2022/07/17 10:33:59;;;;;;;2.88;1.35;;;22.30;69.60;;;;;;5120809;28;20197;-79
2022/07/17 10:36:36;;;;;;;5.20;1.73;;;22.30;69.60;;;;;;5126565;28;20208;-79
2022/07/17 10:39:14;;;;;;;4.65;1.63;;;22.50;70.20;;;;;;5121795;28;20200;-79
2022/07/17 10:41:43;;;;;;;2.53;1.60;;;22.70;68.80;;;;;;5122451;28;20194;-79
2022/07/17 10:44:12;;;;;;;1.40;1.13;;;22.80;67.80;;;;;;5120056;27;20233;-79
2022/07/17 10:46:40;;;;;;;5.00;1.67;;;22.90;67.20;;;;;;5123498;28;20220;-79
2022/07/17 10:49:07;;;;;;;4.72;1.50;;;22.70;64.10;;;;;;5127262;28;20212;-79
2022/07/17 10:51:35;;;;;;;2.70;1.63;;;22.90;63.50;;;;;;5121363;28;20198;-79
2022/07/17 10:54:03;;;;;;;2.67;1.40;;;23.10;63.30;;;;;;5131149;28;20189;-79
2022/07/17 10:56:31;;;;;;;2.80;1.50;;;23.10;62.80;;;;;;5124007;28;20222;-79
2022/07/17 10:59:03;;;;;;;4.15;1.90;;;23.30;63.80;;;;;;5131551;28;20196;-79
2022/07/17 11:01:32;;;;;;;1.75;1.60;;;23.50;63.00;;;;;;5127114;28;20215;-79
2022/07/17 11:04:01;;;;;;;5.45;1.88;;;23.40;63.50;;;;;;5125299;28;20223;-79
2022/07/17 11:06:30;;;;;;;3.38;1.40;;;23.30;62.70;;;;;;5124904;28;20215;-79
2022/07/17 11:09:00;;;;;;;3.35;1.95;;;23.40;61.20;;;;;;5132804;27;20195;-79
2022/07/17 11:11:37;;;;;;;5.70;2.83;;;23.60;59.60;;;;;;5123577;28;20188;-79
2022/07/17 11:14:12;;;;;;;6.13;1.80;;;23.80;60.10;;;;;;5132591;28;20192;-79
2022/07/17 11:16:47;;;;;;;2.05;1.30;;;23.90;57.30;;;;;;5126548;28;20222;-79
2022/07/17 11:19:22;;;;;;;3.22;1.55;;;24.00;56.90;;;;;;5130000;28;20189;-79
2022/07/17 11:21:50;;;;;;;3.22;1.35;;;24.10;56.90;;;;;;5125878;28;20277;-79
2022/07/17 11:24:18;;;;;;;2.88;1.23;;;24.10;54.80;;;;;;5127635;28;20223;-79
2022/07/17 11:26:49;;;;;;;3.65;1.52;;;24.10;54.20;;;;;;5130545;28;20226;-79
2022/07/17 11:29:17;;;;;;;3.00;1.50;;;24.20;53.20;;;;;;5130724;27;20567;-79
2022/07/17 11:31:46;;;;;;;2.50;1.20;;;24.30;52.60;;;;;;5119131;28;20563;-77
2022/07/17 11:34:14;;;;;;;4.20;1.33;;;24.20;52.80;;;;;;5112381;28;20271;-77
2022/07/17 11:36:43;;;;;;;3.28;1.50;;;24.40;51.40;;;;;;5107436;28;20216;-77
2022/07/17 11:39:13;;;;;;;4.00;1.38;;;24.40;50.80;;;;;;5103244;28;20197;-77
2022/07/17 11:41:42;;;;;;;2.53;1.15;;;24.30;50.50;;;;;;5103455;28;20673;-77
2022/07/17 11:44:11;;;;;;;3.35;1.30;;;24.60;51.10;;;;;;5108593;28;20216;-77
2022/07/17 11:46:41;;;;;;;3.15;1.27;;;24.90;51.00;;;;;;5109711;28;20223;-77
2022/07/17 11:49:10;;;;;;;1.95;1.10;;;25.20;51.20;;;;;;5113116;28;20215;-77
2022/07/17 11:51:42;;;;;;;2.15;1.33;;;25.30;49.70;;;;;;5110833;28;20201;-77
2022/07/17 11:54:11;;;;;;;2.15;1.33;;;25.30;50.00;;;;;;5107351;28;20573;-77
2022/07/17 11:56:40;;;;;;;3.03;1.30;;;25.60;50.00;;;;;;5110817;28;20213;-77
2022/07/17 11:59:08;;;;;;;4.43;1.15;;;25.70;48.90;;;;;;5108228;28;20196;-78
2022/07/17 12:01:40;;;;;;;2.65;1.30;;;25.70;49.00;;;;;;5103237;28;20207;-77
2022/07/17 12:04:11;;;;;;;2.38;1.45;;;25.70;47.40;;;;;;5109851;28;20205;-77
2022/07/17 12:06:39;;;;;;;3.75;1.45;;;25.60;47.20;;;;;;5112752;28;20224;-77
2022/07/17 12:09:07;;;;;;;3.35;1.20;;;25.80;46.70;;;;;;5126989;27;20286;-77
2022/07/17 12:11:45;;;;;;;3.95;1.35;;;25.90;46.00;;;;;;5106523;28;20232;-78
2022/07/17 12:14:12;;;;;;;4.40;1.80;;;26.10;46.00;;;;;;5114072;27;20583;-78
2022/07/17 12:16:40;;;;;;;3.42;1.20;;;26.10;44.90;;;;;;5112499;28;20705;-78
2022/07/17 12:19:14;;;;;;;4.20;1.30;;;25.90;44.50;;;;;;5105636;28;20204;-78
2022/07/17 12:21:50;;;;;;;2.97;1.30;;;25.80;44.40;;;;;;5106505;28;20642;-77
2022/07/17 12:24:23;;;;;;;3.35;1.33;;;25.80;43.80;;;;;;5110359;28;20553;-78
2022/07/17 12:26:51;;;;;;;3.28;1.25;;;25.80;44.30;;;;;;5111427;28;20220;-78
2022/07/17 12:29:19;;;;;;;2.22;1.40;;;26.20;42.20;;;;;;5111827;28;20204;-78
2022/07/17 12:31:47;;;;;;;3.95;1.13;;;26.30;42.20;;;;;;5108005;28;20209;-77
2022/07/17 12:34:16;;;;;;;5.35;1.27;;;26.40;41.50;;;;;;5111810;28;20212;-77
2022/07/17 12:36:43;;;;;;;2.35;1.13;;;26.20;41.20;;;;;;5101578;28;20225;-78
2022/07/17 12:39:11;;;;;;;5.30;1.27;;;26.70;40.40;;;;;;5097358;28;20208;-78
2022/07/17 12:41:38;;;;;;;2.92;0.82;;;26.80;40.30;;;;;;5102523;28;20188;-78
2022/07/17 12:44:05;;;;;;;2.35;0.90;;;26.30;38.90;;;;;;5108072;28;20193;-78
2022/07/17 12:46:33;;;;;;;3.75;0.98;;;26.50;39.10;;;;;;5111800;28;20247;-78
2022/07/17 12:49:00;;;;;;;3.50;1.75;;;26.80;38.80;;;;;;5109778;28;20208;-78
2022/07/17 12:51:30;;;;;;;2.33;1.10;;;27.20;39.00;;;;;;5101495;28;20542;-78
2022/07/17 12:53:57;;;;;;;3.78;1.30;;;27.20;39.10;;;;;;5093172;28;20216;-78
2022/07/17 12:56:26;;;;;;;2.05;1.08;;;26.90;40.20;;;;;;5109362;28;20577;-78
2022/07/17 12:58:54;;;;;;;2.38;0.93;;;26.90;39.20;;;;;;5105051;28;20189;-78